sensor_id;sensor_type;location;lat;lon;timestamp;pressure;altitude;pressure_sealevel;temperature;humidity
67099;BME280;54288;53.046;5.668;2023-04-19T00:00:17;103140.88;;;7.07;100.00
67099;BME280;54288;53.046;5.668;2023-04-19T00:02:44;103149.47;;;7.05;100.00
67099;BME280;54288;53.046;5.668;2023-04-19T00:05:09;103150.25;;;7.01;100.00
67099;BME280;54288;53.046;5.668;2023-04-19T00:07:37;103144.13;;;7.00;100.00
67099;BME280;54288;53.046;5.668;2023-04-19T00:10:03;103151.88;;;6.97;100.00
67099;BME280;54288;53.046;5.668;2023-04-19T00:12:29;103139.66;;;6.96;100.00
67099;BME280;54288;53.046;5.668;2023-04-19T00:14:55;103145.78;;;6.97;100.00
67099;BME280;54288;53.046;5.668;2023-04-19T00:17:20;103126.75;;;6.99;100.00
67099;BME280;54288;53.046;5.668;2023-04-19T00:19:47;103129.44;;;7.02;100.00
67099;BME280;54288;53.046;5.668;2023-04-19T00:22:12;103139.91;;;7.04;100.00
67099;BME280;54288;53.046;5.668;2023-04-19T00:24:38;103135.66;;;7.06;100.00
67099;BME280;54288;53.046;5.668;2023-04-19T00:27:04;103138.25;;;7.06;100.00
67099;BME280;54288;53.046;5.668;2023-04-19T00:29:29;103140.06;;;7.08;100.00
67099;BME280;54288;53.046;5.668;2023-04-19T00:31:57;103135.66;;;7.07;100.00
67099;BME280;54288;53.046;5.668;2023-04-19T00:34:23;103138.25;;;7.06;100.00
67099;BME280;54288;53.046;5.668;2023-04-19T00:36:48;103139.13;;;7.06;100.00
67099;BME280;54288;53.046;5.668;2023-04-19T00:39:14;103137.47;;;7.08;100.00
67099;BME280;54288;53.046;5.668;2023-04-19T00:41:40;103133.16;;;7.10;100.00
67099;BME280;54288;53.046;5.668;2023-04-19T00:44:05;103132.25;;;7.08;100.00
67099;BME280;54288;53.046;5.668;2023-04-19T00:46:31;103126.94;;;7.05;100.00
67099;BME280;54288;53.046;5.668;2023-04-19T00:48:58;103134.69;;;7.04;100.00
67099;BME280;54288;53.046;5.668;2023-04-19T00:51:25;103129.44;;;7.02;100.00
67099;BME280;54288;53.046;5.668;2023-04-19T00:53:51;103128.50;;;7.00;100.00
67099;BME280;54288;53.046;5.668;2023-04-19T00:56:20;103136.25;;;6.97;100.00
67099;BME280;54288;53.046;5.668;2023-04-19T00:58:47;103122.28;;;6.95;100.00
67099;BME280;54288;53.046;5.668;2023-04-19T01:01:13;103124.88;;;6.95;100.00
67099;BME280;54288;53.046;5.668;2023-04-19T01:03:40;103134.38;;;6.93;100.00
67099;BME280;54288;53.046;5.668;2023-04-19T01:06:05;103136.78;;;6.87;100.00
67099;BME280;54288;53.046;5.668;2023-04-19T01:08:31;103136.69;;;6.84;100.00
67099;BME280;54288;53.046;5.668;2023-04-19T01:10:57;103133.16;;;6.82;100.00
67099;BME280;54288;53.046;5.668;2023-04-19T01:13:22;103138.25;;;6.79;100.00
67099;BME280;54288;53.046;5.668;2023-04-19T01:15:49;103132.97;;;6.76;100.00
67099;BME280;54288;53.046;5.668;2023-04-19T01:18:15;103135.56;;;6.76;100.00
67099;BME280;54288;53.046;5.668;2023-04-19T01:20:41;103132.06;;;6.76;100.00
67099;BME280;54288;53.046;5.668;2023-04-19T01:23:07;103138.19;;;6.76;100.00
67099;BME280;54288;53.046;5.668;2023-04-19T01:25:36;103137.34;;;6.77;100.00
67099;BME280;54288;53.046;5.668;2023-04-19T01:28:02;103139.06;;;6.77;100.00
67099;BME280;54288;53.046;5.668;2023-04-19T01:30:27;103138.31;;;6.81;100.00
67099;BME280;54288;53.046;5.668;2023-04-19T01:32:54;103139.16;;;6.80;100.00
67099;BME280;54288;53.046;5.668;2023-04-19T01:35:20;103142.72;;;6.83;100.00
67099;BME280;54288;53.046;5.668;2023-04-19T01:37:45;103145.28;;;6.82;100.00
67099;BME280;54288;53.046;5.668;2023-04-19T01:40:11;103138.25;;;6.79;100.00
67099;BME280;54288;53.046;5.668;2023-04-19T01:42:37;103141.69;;;6.78;100.00
67099;BME280;54288;53.046;5.668;2023-04-19T01:45:03;103143.38;;;6.76;100.00
67099;BME280;54288;53.046;5.668;2023-04-19T01:47:29;103142.47;;;6.74;100.00
67099;BME280;54288;53.046;5.668;2023-04-19T01:49:55;103141.47;;;6.71;100.00
67099;BME280;54288;53.046;5.668;2023-04-19T01:52:20;103137.88;;;6.67;100.00
67099;BME280;54288;53.046;5.668;2023-04-19T01:54:47;103142.03;;;6.62;100.00
67099;BME280;54288;53.046;5.668;2023-04-19T01:57:14;103146.34;;;6.60;100.00
67099;BME280;54288;53.046;5.668;2023-04-19T01:59:41;103142.88;;;6.60;100.00
67099;BME280;54288;53.046;5.668;2023-04-19T02:02:06;103148.84;;;6.57;100.00
67099;BME280;54288;53.046;5.668;2023-04-19T02:04:33;103142.69;;;6.55;100.00
67099;BME280;54288;53.046;5.668;2023-04-19T02:06:59;103139.25;;;6.56;100.00
67099;BME280;54288;53.046;5.668;2023-04-19T02:09:28;103141.84;;;6.56;100.00
67099;BME280;54288;53.046;5.668;2023-04-19T02:11:53;103149.66;;;6.56;100.00
67099;BME280;54288;53.046;5.668;2023-04-19T02:14:20;103150.56;;;6.57;100.00
67099;BME280;54288;53.046;5.668;2023-04-19T02:16:47;103143.78;;;6.62;100.00
67099;BME280;54288;53.046;5.668;2023-04-19T02:19:13;103144.88;;;6.68;100.00
67099;BME280;54288;53.046;5.668;2023-04-19T02:21:38;103144.97;;;6.71;100.00
67099;BME280;54288;53.046;5.668;2023-04-19T02:24:04;103150.31;;;6.76;100.00
67099;BME280;54288;53.046;5.668;2023-04-19T02:26:30;103149.38;;;6.74;100.00
67099;BME280;54288;53.046;5.668;2023-04-19T02:28:56;103151.06;;;6.72;100.00
67099;BME280;54288;53.046;5.668;2023-04-19T02:31:21;103151.06;;;6.72;100.00
67099;BME280;54288;53.046;5.668;2023-04-19T02:33:47;103151.09;;;6.73;100.00
67099;BME280;54288;53.046;5.668;2023-04-19T02:36:13;103151.09;;;6.73;100.00
67099;BME280;54288;53.046;5.668;2023-04-19T02:38:39;103158.94;;;6.75;100.00
67099;BME280;54288;53.046;5.668;2023-04-19T02:41:04;103153.69;;;6.73;100.00
67099;BME280;54288;53.046;5.668;2023-04-19T02:43:30;103163.19;;;6.71;100.00
67099;BME280;54288;53.046;5.668;2023-04-19T02:45:56;103157.84;;;6.67;100.00
67099;BME280;54288;53.046;5.668;2023-04-19T02:48:21;103161.16;;;6.63;100.00
67099;BME280;54288;53.046;5.668;2023-04-19T02:50:47;103160.06;;;6.56;100.00
67099;BME280;54288;53.046;5.668;2023-04-19T02:53:13;103160.78;;;6.51;100.00
67099;BME280;54288;53.046;5.668;2023-04-19T02:55:39;103165.72;;;6.43;100.00
67099;BME280;54288;53.046;5.668;2023-04-19T02:58:11;103162.97;;;6.39;100.00
67099;BME280;54288;53.046;5.668;2023-04-19T03:00:44;103165.47;;;6.36;100.00
67099;BME280;54288;53.046;5.668;2023-04-19T03:03:14;103164.47;;;6.32;100.00
67099;BME280;54288;53.046;5.668;2023-04-19T03:05:39;103157.38;;;6.28;100.00
67099;BME280;54288;53.046;5.668;2023-04-19T03:08:06;103165.19;;;6.28;100.00
67099;BME280;54288;53.046;5.668;2023-04-19T03:10:32;103160.84;;;6.27;100.00
67099;BME280;54288;53.046;5.668;2023-04-19T03:12:57;103169.59;;;6.29;100.00
67099;BME280;54288;53.046;5.668;2023-04-19T03:15:23;103170.38;;;6.27;100.00
67099;BME280;54288;53.046;5.668;2023-04-19T03:17:49;103167.78;;;6.28;100.00
67099;BME280;54288;53.046;5.668;2023-04-19T03:20:14;103164.38;;;6.29;100.00
67099;BME280;54288;53.046;5.668;2023-04-19T03:22:41;103154.78;;;6.28;100.00
67099;BME280;54288;53.046;5.668;2023-04-19T03:25:08;103162.56;;;6.27;100.00
67099;BME280;54288;53.046;5.668;2023-04-19T03:27:37;103158.16;;;6.24;100.00
67099;BME280;54288;53.046;5.668;2023-04-19T03:30:08;103158.22;;;6.27;100.00
67099;BME280;54288;53.046;5.668;2023-04-19T03:32:34;103156.53;;;6.28;100.00
67099;BME280;54288;53.046;5.668;2023-04-19T03:35:01;103154.69;;;6.25;100.00
67099;BME280;54288;53.046;5.668;2023-04-19T03:37:27;103149.56;;;6.27;100.00
67099;BME280;54288;53.046;5.668;2023-04-19T03:39:53;103150.41;;;6.26;100.00
67099;BME280;54288;53.046;5.668;2023-04-19T03:42:25;103156.47;;;6.26;100.00
67099;BME280;54288;53.046;5.668;2023-04-19T03:44:56;103150.44;;;6.27;100.00
67099;BME280;54288;53.046;5.668;2023-04-19T03:47:24;103150.44;;;6.27;100.00
67099;BME280;54288;53.046;5.668;2023-04-19T03:49:53;103156.41;;;6.25;100.00
67099;BME280;54288;53.046;5.668;2023-04-19T03:52:19;103145.00;;;6.21;100.00
67099;BME280;54288;53.046;5.668;2023-04-19T03:54:45;103146.63;;;6.18;100.00
67099;BME280;54288;53.046;5.668;2023-04-19T03:57:30;103156.97;;;6.16;100.00
67099;BME280;54288;53.046;5.668;2023-04-19T04:00:05;103154.22;;;6.12;100.00
67099;BME280;54288;53.046;5.668;2023-04-19T04:02:39;103163.72;;;6.10;100.00
67099;BME280;54288;53.046;5.668;2023-04-19T04:05:06;103158.44;;;6.08;100.00
67099;BME280;54288;53.046;5.668;2023-04-19T04:07:33;103151.34;;;6.04;100.00
67099;BME280;54288;53.046;5.668;2023-04-19T04:10:00;103160.94;;;6.05;100.00
67099;BME280;54288;53.046;5.668;2023-04-19T04:12:26;103161.69;;;6.01;100.00
67099;BME280;54288;53.046;5.668;2023-04-19T04:14:53;103161.56;;;5.98;100.00
67099;BME280;54288;53.046;5.668;2023-04-19T04:17:20;103164.09;;;5.97;100.00
67099;BME280;54288;53.046;5.668;2023-04-19T04:19:47;103170.09;;;5.94;100.00
67099;BME280;54288;53.046;5.668;2023-04-19T04:22:13;103163.88;;;5.91;100.00
67099;BME280;54288;53.046;5.668;2023-04-19T04:24:41;103168.09;;;5.87;100.00
67099;BME280;54288;53.046;5.668;2023-04-19T04:27:20;103170.69;;;5.87;100.00
67099;BME280;54288;53.046;5.668;2023-04-19T04:29:47;103172.22;;;5.82;100.00
67099;BME280;54288;53.046;5.668;2023-04-19T04:32:14;103169.50;;;5.79;100.00
67099;BME280;54288;53.046;5.668;2023-04-19T04:34:43;103165.97;;;5.77;100.00
67099;BME280;54288;53.046;5.668;2023-04-19T04:37:20;103173.78;;;5.77;100.00
67099;BME280;54288;53.046;5.668;2023-04-19T04:39:47;103179.78;;;5.76;100.00
67099;BME280;54288;53.046;5.668;2023-04-19T04:42:13;103181.53;;;5.76;100.00
67099;BME280;54288;53.046;5.668;2023-04-19T04:44:39;103177.97;;;5.74;100.00
67099;BME280;54288;53.046;5.668;2023-04-19T04:47:07;103182.28;;;5.73;100.00
67099;BME280;54288;53.046;5.668;2023-04-19T04:49:39;103182.16;;;5.70;100.00
67099;BME280;54288;53.046;5.668;2023-04-19T04:52:05;103191.63;;;5.68;100.00
67099;BME280;54288;53.046;5.668;2023-04-19T04:54:38;103189.03;;;5.68;100.00
67099;BME280;54288;53.046;5.668;2023-04-19T04:57:08;103187.19;;;5.66;100.00
67099;BME280;54288;53.046;5.668;2023-04-19T04:59:34;103186.31;;;5.65;100.00
67099;BME280;54288;53.046;5.668;2023-04-19T05:02:02;103187.19;;;5.66;100.00
67099;BME280;54288;53.046;5.668;2023-04-19T05:04:28;103193.31;;;5.66;100.00
67099;BME280;54288;53.046;5.668;2023-04-19T05:06:53;103189.75;;;5.64;100.00
67099;BME280;54288;53.046;5.668;2023-04-19T05:09:23;103194.06;;;5.64;100.00
67099;BME280;54288;53.046;5.668;2023-04-19T05:11:49;103199.22;;;5.62;100.00
67099;BME280;54288;53.046;5.668;2023-04-19T05:14:15;103199.28;;;5.64;100.00
67099;BME280;54288;53.046;5.668;2023-04-19T05:16:41;103200.06;;;5.63;100.00
67099;BME280;54288;53.046;5.668;2023-04-19T05:19:07;103196.66;;;5.64;100.00
67099;BME280;54288;53.046;5.668;2023-04-19T05:21:38;103198.38;;;5.63;100.00
67099;BME280;54288;53.046;5.668;2023-04-19T05:24:05;103204.50;;;5.65;100.00
67099;BME280;54288;53.046;5.668;2023-04-19T05:26:33;103201.09;;;5.66;100.00
67099;BME280;54288;53.046;5.668;2023-04-19T05:28:59;103199.38;;;5.67;100.00
67099;BME280;54288;53.046;5.668;2023-04-19T05:31:39;103203.78;;;5.69;100.00
67099;BME280;54288;53.046;5.668;2023-04-19T05:34:15;103196.16;;;5.74;100.00
67099;BME280;54288;53.046;5.668;2023-04-19T05:36:41;103194.59;;;5.79;100.00
67099;BME280;54288;53.046;5.668;2023-04-19T05:39:07;103198.09;;;6.01;100.00
67099;BME280;54288;53.046;5.668;2023-04-19T05:41:34;103197.72;;;6.92;97.88
67099;BME280;54288;53.046;5.668;2023-04-19T05:44:00;103196.13;;;7.53;93.85
67099;BME280;54288;53.046;5.668;2023-04-19T05:46:25;103197.19;;;7.89;90.07
67099;BME280;54288;53.046;5.668;2023-04-19T05:48:52;103197.97;;;8.16;87.22
67099;BME280;54288;53.046;5.668;2023-04-19T05:51:36;103195.16;;;8.41;84.17
67099;BME280;54288;53.046;5.668;2023-04-19T05:54:24;103199.63;;;8.45;83.69
67099;BME280;54288;53.046;5.668;2023-04-19T05:56:50;103199.19;;;8.63;82.96
67099;BME280;54288;53.046;5.668;2023-04-19T05:59:16;103191.94;;;8.87;80.63
67099;BME280;54288;53.046;5.668;2023-04-19T06:01:42;103191.03;;;9.60;81.04
67099;BME280;54288;53.046;5.668;2023-04-19T06:04:07;103184.84;;;9.58;77.53
67099;BME280;54288;53.046;5.668;2023-04-19T06:06:33;103191.06;;;9.63;76.02
67099;BME280;54288;53.046;5.668;2023-04-19T06:08:59;103185.94;;;10.11;77.83
67099;BME280;54288;53.046;5.668;2023-04-19T06:11:25;103180.94;;;10.21;75.50
67099;BME280;54288;53.046;5.668;2023-04-19T06:13:50;103188.78;;;10.21;73.75
67099;BME280;54288;53.046;5.668;2023-04-19T06:16:16;103195.13;;;9.91;73.38
67099;BME280;54288;53.046;5.668;2023-04-19T06:18:42;103190.97;;;10.00;73.64
67099;BME280;54288;53.046;5.668;2023-04-19T06:21:07;103189.88;;;9.89;73.76
67099;BME280;54288;53.046;5.668;2023-04-19T06:23:33;103189.50;;;10.13;72.92
67099;BME280;54288;53.046;5.668;2023-04-19T06:25:59;103192.72;;;10.01;71.67
67099;BME280;54288;53.046;5.668;2023-04-19T06:28:24;103200.34;;;9.89;72.84
67099;BME280;54288;53.046;5.668;2023-04-19T06:30:50;103196.31;;;10.05;72.25
67099;BME280;54288;53.046;5.668;2023-04-19T06:33:16;103199.06;;;10.12;70.38
67099;BME280;54288;53.046;5.668;2023-04-19T06:35:41;103191.81;;;9.99;70.21
67099;BME280;54288;53.046;5.668;2023-04-19T06:38:07;103200.59;;;10.03;70.33
67099;BME280;54288;53.046;5.668;2023-04-19T06:40:33;103201.72;;;10.14;70.71
67099;BME280;54288;53.046;5.668;2023-04-19T06:42:58;103197.19;;;10.05;68.77
67099;BME280;54288;53.046;5.668;2023-04-19T06:45:24;103195.97;;;9.88;69.95
67099;BME280;54288;53.046;5.668;2023-04-19T06:47:50;103199.47;;;9.90;70.13
67099;BME280;54288;53.046;5.668;2023-04-19T06:50:16;103202.09;;;10.33;69.36
67099;BME280;54288;53.046;5.668;2023-04-19T06:52:41;103208.09;;;10.28;68.54
67099;BME280;54288;53.046;5.668;2023-04-19T06:55:08;103213.84;;;10.58;70.71
67099;BME280;54288;53.046;5.668;2023-04-19T06:57:34;103210.28;;;10.51;66.86
67099;BME280;54288;53.046;5.668;2023-04-19T07:00:00;103212.75;;;10.44;66.17
67099;BME280;54288;53.046;5.668;2023-04-19T07:02:25;103215.00;;;10.24;64.25
67099;BME280;54288;53.046;5.668;2023-04-19T07:04:51;103207.81;;;10.14;63.85
67099;BME280;54288;53.046;5.668;2023-04-19T07:07:17;103208.53;;;10.04;65.82
67099;BME280;54288;53.046;5.668;2023-04-19T07:09:42;103209.34;;;10.48;67.22
67099;BME280;54288;53.046;5.668;2023-04-19T07:12:08;103211.69;;;10.83;64.61
67099;BME280;54288;53.046;5.668;2023-04-19T07:14:34;103210.69;;;10.75;60.27
67099;BME280;54288;53.046;5.668;2023-04-19T07:16:59;103210.09;;;10.42;60.57
67099;BME280;54288;53.046;5.668;2023-04-19T07:19:25;103202.69;;;10.19;61.37
67099;BME280;54288;53.046;5.668;2023-04-19T07:21:52;103198.25;;;10.62;62.98
67099;BME280;54288;53.046;5.668;2023-04-19T07:24:18;103195.84;;;10.76;61.47
67099;BME280;54288;53.046;5.668;2023-04-19T07:26:44;103204.53;;;10.73;61.79
67099;BME280;54288;53.046;5.668;2023-04-19T07:29:09;103204.84;;;10.91;59.93
67099;BME280;54288;53.046;5.668;2023-04-19T07:31:35;103197.78;;;10.87;61.03
67099;BME280;54288;53.046;5.668;2023-04-19T07:34:01;103200.31;;;10.83;60.53
67099;BME280;54288;53.046;5.668;2023-04-19T07:36:26;103193.06;;;11.23;59.82
67099;BME280;54288;53.046;5.668;2023-04-19T07:38:52;103205.84;;;11.01;57.15
67099;BME280;54288;53.046;5.668;2023-04-19T07:41:19;103208.63;;;11.11;59.25
67099;BME280;54288;53.046;5.668;2023-04-19T07:43:45;103193.50;;;10.94;55.91
67099;BME280;54288;53.046;5.668;2023-04-19T07:46:12;103189.03;;;10.87;56.84
67099;BME280;54288;53.046;5.668;2023-04-19T07:48:38;103193.22;;;10.77;56.45
67099;BME280;54288;53.046;5.668;2023-04-19T07:51:11;103189.47;;;11.15;57.20
67099;BME280;54288;53.046;5.668;2023-04-19T07:53:38;103188.44;;;11.06;55.33
67099;BME280;54288;53.046;5.668;2023-04-19T07:56:06;103179.78;;;11.10;57.23
67099;BME280;54288;53.046;5.668;2023-04-19T07:58:31;103184.28;;;11.20;56.42
67099;BME280;54288;53.046;5.668;2023-04-19T08:00:57;103178.44;;;11.40;56.56
67099;BME280;54288;53.046;5.668;2023-04-19T08:03:23;103185.56;;;11.50;56.18
67099;BME280;54288;53.046;5.668;2023-04-19T08:05:49;103181.56;;;11.75;55.02
67099;BME280;54288;53.046;5.668;2023-04-19T08:08:15;103179.88;;;11.80;55.03
67099;BME280;54288;53.046;5.668;2023-04-19T08:10:42;103179.88;;;11.80;55.07
67099;BME280;54288;53.046;5.668;2023-04-19T08:13:07;103180.91;;;11.95;53.53
67099;BME280;54288;53.046;5.668;2023-04-19T08:15:34;103177.63;;;12.13;52.96
67099;BME280;54288;53.046;5.668;2023-04-19T08:18:00;103181.06;;;12.08;51.03
67099;BME280;54288;53.046;5.668;2023-04-19T08:20:26;103175.72;;;12.01;50.83
67099;BME280;54288;53.046;5.668;2023-04-19T08:22:52;103167.75;;;11.93;50.51
67099;BME280;54288;53.046;5.668;2023-04-19T08:25:18;103182.78;;;12.08;50.48
67099;BME280;54288;53.046;5.668;2023-04-19T08:27:44;103178.66;;;12.31;51.18
67099;BME280;54288;53.046;5.668;2023-04-19T08:30:10;103179.69;;;12.45;50.25
67099;BME280;54288;53.046;5.668;2023-04-19T08:32:36;103173.75;;;12.70;50.64
67099;BME280;54288;53.046;5.668;2023-04-19T08:35:02;103173.69;;;12.61;46.97
67099;BME280;54288;53.046;5.668;2023-04-19T08:37:28;103177.06;;;12.46;47.67
67099;BME280;54288;53.046;5.668;2023-04-19T08:39:54;103173.63;;;12.56;47.76
67099;BME280;54288;53.046;5.668;2023-04-19T08:42:19;103175.50;;;12.69;46.72
67099;BME280;54288;53.046;5.668;2023-04-19T08:44:45;103184.88;;;12.42;47.22
67099;BME280;54288;53.046;5.668;2023-04-19T08:47:12;103161.38;;;12.57;47.31
67099;BME280;54288;53.046;5.668;2023-04-19T08:49:40;103171.06;;;12.61;48.73
67099;BME280;54288;53.046;5.668;2023-04-19T08:52:08;103165.72;;;12.49;47.87
67099;BME280;54288;53.046;5.668;2023-04-19T08:54:34;103154.81;;;13.14;49.19
67099;BME280;54288;53.046;5.668;2023-04-19T08:57:01;103155.72;;;13.21;47.10
67099;BME280;54288;53.046;5.668;2023-04-19T08:59:27;103156.69;;;13.36;45.76
67099;BME280;54288;53.046;5.668;2023-04-19T09:01:59;103158.47;;;13.37;45.79
67099;BME280;54288;53.046;5.668;2023-04-19T09:04:25;103153.16;;;13.30;40.91
67099;BME280;54288;53.046;5.668;2023-04-19T09:06:51;103147.91;;;13.34;42.45
67099;BME280;54288;53.046;5.668;2023-04-19T09:09:28;103151.50;;;13.48;44.34
67099;BME280;54288;53.046;5.668;2023-04-19T09:11:54;103143.69;;;13.77;45.45
67099;BME280;54288;53.046;5.668;2023-04-19T09:14:21;103152.38;;;13.55;42.27
67099;BME280;54288;53.046;5.668;2023-04-19T09:16:47;103148.91;;;13.65;42.07
67099;BME280;54288;53.046;5.668;2023-04-19T09:19:13;103141.06;;;13.83;43.18
67099;BME280;54288;53.046;5.668;2023-04-19T09:21:41;103149.84;;;13.88;41.78
67099;BME280;54288;53.046;5.668;2023-04-19T09:24:07;103136.66;;;13.74;40.63
67099;BME280;54288;53.046;5.668;2023-04-19T09:26:34;103131.44;;;14.06;41.59
67099;BME280;54288;53.046;5.668;2023-04-19T09:29:01;103152.50;;;13.88;40.44
67099;BME280;54288;53.046;5.668;2023-04-19T09:31:36;103134.91;;;13.78;40.02
67099;BME280;54288;53.046;5.668;2023-04-19T09:36:37;103127.03;;;13.85;38.47
67099;BME280;54288;53.046;5.668;2023-04-19T09:39:03;103135.75;;;13.75;40.18
67099;BME280;54288;53.046;5.668;2023-04-19T09:41:30;103128.84;;;14.10;40.07
67099;BME280;54288;53.046;5.668;2023-04-19T09:44:09;103118.34;;;14.19;40.52
67099;BME280;54288;53.046;5.668;2023-04-19T09:46:36;103131.47;;;14.13;40.73
67099;BME280;54288;53.046;5.668;2023-04-19T09:51:50;103119.19;;;14.14;40.80
67099;BME280;54288;53.046;5.668;2023-04-19T09:54:18;103125.38;;;14.25;40.71
67099;BME280;54288;53.046;5.668;2023-04-19T09:56:45;103123.53;;;14.06;38.77
67099;BME280;54288;53.046;5.668;2023-04-19T09:59:11;103120.97;;;14.21;39.83
67099;BME280;54288;53.046;5.668;2023-04-19T10:01:41;103113.06;;;14.22;40.76
67099;BME280;54288;53.046;5.668;2023-04-19T10:04:10;103121.00;;;14.36;39.12
67099;BME280;54288;53.046;5.668;2023-04-19T10:06:38;103111.25;;;14.03;39.55
67099;BME280;54288;53.046;5.668;2023-04-19T10:09:06;103120.09;;;14.41;41.08
67099;BME280;54288;53.046;5.668;2023-04-19T10:11:34;103117.47;;;14.53;40.38
67099;BME280;54288;53.046;5.668;2023-04-19T10:14:10;103113.06;;;14.45;39.46
67099;BME280;54288;53.046;5.668;2023-04-19T10:16:37;103117.47;;;14.43;40.84
67099;BME280;54288;53.046;5.668;2023-04-19T10:19:08;103112.16;;;14.82;41.24
67099;BME280;54288;53.046;5.668;2023-04-19T10:21:35;103109.53;;;14.64;42.36
67099;BME280;54288;53.046;5.668;2023-04-19T10:24:03;103101.59;;;14.79;43.77
67099;BME280;54288;53.046;5.668;2023-04-19T10:26:29;103099.84;;;14.93;42.28
67099;BME280;54288;53.046;5.668;2023-04-19T10:28:55;103092.72;;;15.16;42.39
67099;BME280;54288;53.046;5.668;2023-04-19T10:31:25;103100.63;;;15.11;41.32
67099;BME280;54288;53.046;5.668;2023-04-19T10:33:51;103087.50;;;14.92;41.62
67099;BME280;54288;53.046;5.668;2023-04-19T10:36:17;103094.56;;;14.81;42.27
67099;BME280;54288;53.046;5.668;2023-04-19T10:38:48;103091.06;;;14.79;41.60
67099;BME280;54288;53.046;5.668;2023-04-19T10:41:18;103088.38;;;14.94;43.17
67099;BME280;54288;53.046;5.668;2023-04-19T10:43:47;103088.31;;;15.10;42.09
67099;BME280;54288;53.046;5.668;2023-04-19T10:46:16;103081.31;;;15.03;41.37
67099;BME280;54288;53.046;5.668;2023-04-19T10:49:02;103068.88;;;15.29;41.83
67099;BME280;54288;53.046;5.668;2023-04-19T10:51:32;103078.59;;;15.21;41.83
67099;BME280;54288;53.046;5.668;2023-04-19T10:57:02;103076.91;;;15.10;39.24
67099;BME280;54288;53.046;5.668;2023-04-19T10:59:36;103072.53;;;14.98;40.40
67099;BME280;54288;53.046;5.668;2023-04-19T11:02:26;103062.84;;;15.03;39.84
67099;BME280;54288;53.046;5.668;2023-04-19T11:07:18;103070.78;;;14.88;39.67
67099;BME280;54288;53.046;5.668;2023-04-19T11:09:47;103059.25;;;15.15;40.81
67099;BME280;54288;53.046;5.668;2023-04-19T11:12:16;103046.97;;;15.18;38.63
67099;BME280;54288;53.046;5.668;2023-04-19T11:14:54;103048.72;;;15.10;39.78
67099;BME280;54288;53.046;5.668;2023-04-19T11:17:32;103047.00;;;15.05;38.76
67099;BME280;54288;53.046;5.668;2023-04-19T11:20:06;103046.06;;;15.15;38.89
67099;BME280;54288;53.046;5.668;2023-04-19T11:22:36;103041.72;;;15.08;38.47
67099;BME280;54288;53.046;5.668;2023-04-19T11:25:17;103037.31;;;15.07;40.03
67099;BME280;54288;53.046;5.668;2023-04-19T11:27:46;103025.03;;;15.00;39.84
67099;BME280;54288;53.046;5.668;2023-04-19T11:30:15;103025.75;;;15.41;39.56
67099;BME280;54288;53.046;5.668;2023-04-19T11:35:18;103024.84;;;15.45;40.15
67099;BME280;54288;53.046;5.668;2023-04-19T11:37:45;103032.72;;;15.51;39.21
67099;BME280;54288;53.046;5.668;2023-04-19T11:40:19;103008.06;;;15.50;40.36
67099;BME280;54288;53.046;5.668;2023-04-19T11:42:53;103012.41;;;15.62;38.50
67099;BME280;54288;53.046;5.668;2023-04-19T11:45:25;102996.56;;;15.62;38.39
67099;BME280;54288;53.046;5.668;2023-04-19T11:47:54;103002.56;;;15.82;38.48
67099;BME280;54288;53.046;5.668;2023-04-19T11:50:40;102994.69;;;15.76;40.29
67099;BME280;54288;53.046;5.668;2023-04-19T11:53:16;103009.81;;;15.56;38.97
67099;BME280;54288;53.046;5.668;2023-04-19T11:55:47;102995.75;;;15.51;39.88
67099;BME280;54288;53.046;5.668;2023-04-19T12:01:11;102986.84;;;15.67;40.15
67099;BME280;54288;53.046;5.668;2023-04-19T12:03:44;102982.38;;;15.76;40.80
67099;BME280;54288;53.046;5.668;2023-04-19T12:06:16;102985.97;;;15.63;40.82
67099;BME280;54288;53.046;5.668;2023-04-19T12:08:44;102977.09;;;15.75;40.91
67099;BME280;54288;53.046;5.668;2023-04-19T12:11:12;102970.69;;;16.00;39.87
67099;BME280;54288;53.046;5.668;2023-04-19T12:13:39;102972.69;;;15.74;39.58
67099;BME280;54288;53.046;5.668;2023-04-19T12:16:06;102973.75;;;15.50;40.22
67099;BME280;54288;53.046;5.668;2023-04-19T12:18:47;102964.06;;;15.48;39.74
67099;BME280;54288;53.046;5.668;2023-04-19T12:21:30;102967.47;;;15.66;39.75
67099;BME280;54288;53.046;5.668;2023-04-19T12:23:59;102975.34;;;15.69;40.40
67099;BME280;54288;53.046;5.668;2023-04-19T12:26:27;102959.78;;;15.36;39.17
67099;BME280;54288;53.046;5.668;2023-04-19T12:28:57;102971.28;;;15.22;39.58
67099;BME280;54288;53.046;5.668;2023-04-19T12:31:24;102969.50;;;15.24;41.25
67099;BME280;54288;53.046;5.668;2023-04-19T12:33:50;102965.00;;;15.42;40.80
67099;BME280;54288;53.046;5.668;2023-04-19T12:36:17;102970.28;;;15.41;41.63
67099;BME280;54288;53.046;5.668;2023-04-19T12:38:44;102962.38;;;15.41;40.34
67099;BME280;54288;53.046;5.668;2023-04-19T12:41:10;102961.56;;;15.33;40.84
67099;BME280;54288;53.046;5.668;2023-04-19T12:43:38;102980.03;;;15.33;42.12
67099;BME280;54288;53.046;5.668;2023-04-19T12:46:04;102978.28;;;15.23;40.87
67099;BME280;54288;53.046;5.668;2023-04-19T12:48:32;102964.28;;;15.09;39.64
67099;BME280;54288;53.046;5.668;2023-04-19T12:51:00;102957.31;;;14.99;40.05
67099;BME280;54288;53.046;5.668;2023-04-19T12:53:27;102954.59;;;15.15;40.55
67099;BME280;54288;53.046;5.668;2023-04-19T12:55:56;102952.75;;;15.26;40.86
67099;BME280;54288;53.046;5.668;2023-04-19T12:58:23;102931.69;;;15.22;41.29
67099;BME280;54288;53.046;5.668;2023-04-19T13:00:53;102948.34;;;15.30;41.07
67099;BME280;54288;53.046;5.668;2023-04-19T13:03:19;102938.72;;;15.20;40.01
67099;BME280;54288;53.046;5.668;2023-04-19T13:05:49;102952.88;;;15.08;41.37
67099;BME280;54288;53.046;5.668;2023-04-19T13:08:20;102936.16;;;15.08;41.04